Arlington Center, Vermont
Current Conditions -  °F | °C
As of 11:54 AM on Saturday 22 Nov 2014 (Local Time) from KDDH Reporting Station
Clear Clear  
Wind Chill: -2°   Ceiling: Unl
Heat Index:   Visibility: 10mi
Dew Point: -14°   Wind: 5mph
Humidity: 34%   Direction: 210°SSW
Pressure: 30.21"   Gusts: NA
Location:  43.1041°N, 73.154°W
Report Text: KDDH 221654Z AUTO 21004KT 10SM CLR 01/M14 A3021 RMK AO2 SLP239 T00061139
Loading
Personal Weather Stations






























Interactive Weather Map New forecast layout! Learn more

10-Day Weather Forecast

Advertisements
Track Severe Weather on mobile